^^
Saratoga-Weather Station Historical Data
Daily Summary for May 8, 2021 Units:  English    Metric   Both
Daily Weekly Monthly Yearly Custom
  High: Low: Average:
Temperature: 35.8 °F 31.8 °F 33.8 °F
Dew Point: 32.5 °F 28.8 °F 30.7 °F
Humidity: 93% 82% 89%
Wind Speed: 11mph 0mph 3.6mph
Wind Gust: 15mph - -
Wind- - West
Pressure: 30.1 in 29.9 in -
Precipitation: 0 in    
Historical Graphs
 
 
Tabular Data for May 8, 2021
Time Temperature Dew Point Pressure Wind Wind Speed Wind Gust Humidity Rainfall Rate (Hourly) solar
00:04 34.2 °F 32.4 °F 30 in West 2 mph 8 mph 93% 0 in 0 W/m2
00:09 34.2 °F 32.4 °F 30 in West 6 mph 12 mph 93% 0 in 0 W/m2
00:14 34.2 °F 32.4 °F 30 in West 6 mph 8 mph 93% 0 in 0 W/m2
00:19 34.2 °F 32.4 °F 30 in WNW 2 mph 12 mph 93% 0 in 0 W/m2
00:24 34.2 °F 32.4 °F 30 in WSW 6.9 mph 8 mph 93% 0 in 0 W/m2
00:29 34.2 °F 32.4 °F 30 in West 4 mph 10 mph 93% 0 in 0 W/m2
00:34 34.3 °F 32.5 °F 30 in West 6 mph 9 mph 93% 0 in 0 W/m2
00:39 34.2 °F 32.4 °F 29.9 in West 2.9 mph 8 mph 93% 0 in 0 W/m2
00:44 34.2 °F 32.4 °F 29.9 in WSW 4 mph 8 mph 93% 0 in 0 W/m2
00:49 34.3 °F 32.5 °F 29.9 in West 6.9 mph 9 mph 93% 0 in 0 W/m2
00:54 34.3 °F 32.5 °F 29.9 in WNW 6.9 mph 9 mph 93% 0 in 0 W/m2
00:59 34.3 °F 32.5 °F 29.9 in West 2 mph 7 mph 93% 0 in 0 W/m2
01:04 34.3 °F 32.5 °F 29.9 in SW 4 mph 7 mph 93% 0 in 0 W/m2
01:09 34.3 °F 32.5 °F 29.9 in West 2.9 mph 6 mph 93% 0 in 0 W/m2
01:14 34.3 °F 32.5 °F 29.9 in WNW 4.9 mph 8 mph 93% 0 in 0 W/m2
01:19 34.3 °F 32.5 °F 29.9 in West 4 mph 6 mph 93% 0 in 0 W/m2
01:24 34.3 °F 32.5 °F 29.9 in West 4 mph 8 mph 93% 0 in 0 W/m2
01:29 34.2 °F 32.4 °F 29.9 in SW 4 mph 8 mph 93% 0 in 0 W/m2
01:34 34.3 °F 32.5 °F 29.9 in West 6.9 mph 8 mph 93% 0 in 0 W/m2
01:39 34.3 °F 32.5 °F 29.9 in West 10.1 mph 10 mph 93% 0 in 0 W/m2
01:44 34.3 °F 32.5 °F 29.9 in WNW 6.9 mph 11 mph 93% 0 in 0 W/m2
01:49 34.3 °F 32.5 °F 29.9 in WSW 2.9 mph 5 mph 93% 0 in 0 W/m2
01:54 34.3 °F 32.5 °F 29.9 in WNW 2.9 mph 11 mph 93% 0 in 0 W/m2
01:59 34.3 °F 32.5 °F 29.9 in WNW 4 mph 5 mph 93% 0 in 0 W/m2
02:04 34.3 °F 32.5 °F 29.9 in West 6.9 mph 7 mph 93% 0 in 0 W/m2
02:09 34.3 °F 32.5 °F 30 in WNW 4 mph 8 mph 93% 0 in 0 W/m2
02:14 34.3 °F 32.5 °F 30 in West 6 mph 8 mph 93% 0 in 0 W/m2
02:19 34.3 °F 32.5 °F 29.9 in West 4 mph 9 mph 93% 0 in 0 W/m2
02:24 34.3 °F 32.5 °F 30 in SSW 4 mph 10 mph 93% 0 in 0 W/m2
02:29 34.3 °F 32.5 °F 30 in WNW 4 mph 9 mph 93% 0 in 0 W/m2
02:34 34.3 °F 32.5 °F 29.9 in WSW 4 mph 10 mph 93% 0 in 0 W/m2
02:39 34.3 °F 32.5 °F 30 in West 4 mph 8 mph 93% 0 in 0 W/m2
02:44 34.3 °F 32.5 °F 30 in West 2 mph 7 mph 93% 0 in 0 W/m2
02:49 34.3 °F 32.5 °F 30 in West 2.9 mph 9 mph 93% 0 in 0 W/m2
02:54 34.2 °F 32.4 °F 30 in West 2.9 mph 5 mph 93% 0 in 0 W/m2
02:59 34.2 °F 32.4 °F 30 in NW 6.9 mph 9 mph 93% 0 in 0 W/m2
03:04 34.3 °F 32.5 °F 30 in West 8.9 mph 9 mph 93% 0 in 0 W/m2
03:09 34.3 °F 32.5 °F 30 in WNW 2 mph 6 mph 93% 0 in 0 W/m2
03:14 34.3 °F 32.5 °F 30 in WNW 4 mph 10 mph 93% 0 in 0 W/m2
03:19 34.3 °F 32.5 °F 30 in West 6 mph 10 mph 93% 0 in 0 W/m2
03:24 34.3 °F 32.5 °F 30 in SW 2.9 mph 10 mph 93% 0 in 0 W/m2
03:29 34.3 °F 32.2 °F 30 in West 8.9 mph 10 mph 92% 0 in 0 W/m2
03:34 34.3 °F 32.2 °F 30 in WSW 6.9 mph 11 mph 92% 0 in 0 W/m2
03:39 34.3 °F 32.2 °F 30 in WSW 6.9 mph 8 mph 92% 0 in 0 W/m2
03:44 34.3 °F 32.2 °F 30 in SW 4.9 mph 11 mph 92% 0 in 0 W/m2
03:49 34.3 °F 32.2 °F 30 in WNW 2.9 mph 8 mph 92% 0 in 0 W/m2
03:54 34.3 °F 32.2 °F 30 in WSW 2.9 mph 9 mph 92% 0 in 0 W/m2
03:59 34.3 °F 32.2 °F 30 in West 6.9 mph 9 mph 92% 0 in 0 W/m2
04:04 34.3 °F 32.2 °F 30 in West 2 mph 11 mph 92% 0 in 0 W/m2
04:09 34.3 °F 32 °F 30 in West 4 mph 9 mph 91% 0 in 0 W/m2
04:14 34.3 °F 32 °F 30 in WSW 4 mph 11 mph 91% 0 in 0 W/m2
04:19 34.2 °F 31.8 °F 30 in West 2.9 mph 8 mph 91% 0 in 0 W/m2
04:24 34.2 °F 31.8 °F 30 in West 8.1 mph 13 mph 91% 0 in 0 W/m2
04:29 34.2 °F 31.8 °F 30 in WNW 2 mph 10 mph 91% 0 in 0 W/m2
04:34 34 °F 31.6 °F 30 in WSW 2.9 mph 13 mph 91% 0 in 0 W/m2
04:39 34 °F 31.6 °F 30 in WNW 4 mph 14 mph 91% 0 in 0 W/m2
04:44 34 °F 31.6 °F 30 in West 6 mph 9 mph 91% 0 in 0 W/m2
04:49 33.8 °F 31.5 °F 30 in WSW 4 mph 11 mph 91% 0 in 0 W/m2
04:55 33.8 °F 31.5 °F 30 in West 6 mph 10 mph 91% 0 in 0 W/m2
05:00 33.6 °F 31.3 °F 30 in West 6.9 mph 10 mph 91% 0 in 0 W/m2
05:05 33.6 °F 31.3 °F 30 in West 2.9 mph 10 mph 91% 0 in 0 W/m2
05:10 33.6 °F 31.3 °F 30 in West 4 mph 9 mph 91% 0 in 0 W/m2
05:15 33.6 °F 31.3 °F 30 in SW 4.9 mph 8 mph 91% 0 in 0 W/m2
05:20 33.6 °F 31.3 °F 30 in WNW 8.9 mph 9 mph 91% 0 in 0 W/m2
05:25 33.6 °F 30.9 °F 30 in WNW 4 mph 10 mph 90% 0 in 0 W/m2
05:30 33.4 °F 30.7 °F 30 in WNW 8.1 mph 10 mph 90% 0 in 0 W/m2
05:35 33.4 °F 30.7 °F 30 in NW 8.9 mph 10 mph 90% 0 in 0 W/m2
05:40 33.4 °F 30.7 °F 30 in West 2.9 mph 8 mph 90% 0 in 0 W/m2
05:45 33.4 °F 30.7 °F 30 in West 2 mph 8 mph 90% 0 in 0 W/m2
05:50 33.4 °F 30.7 °F 30 in WSW 4 mph 7 mph 90% 0 in 0 W/m2
05:55 33.4 °F 30.7 °F 30 in West 6 mph 11 mph 90% 0 in 0 W/m2
06:00 33.4 °F 30.7 °F 30 in NW 6 mph 8 mph 90% 0 in 0 W/m2
06:05 33.3 °F 30.4 °F 30 in West 6 mph 11 mph 89% 0 in 0 W/m2
06:10 33.3 °F 30.4 °F 30 in WSW 2.9 mph 7 mph 89% 0 in 0 W/m2
06:15 33.3 °F 30.4 °F 30 in West 4 mph 9 mph 89% 0 in 0 W/m2
06:20 33.3 °F 30.4 °F 30 in West 8.1 mph 8 mph 89% 0 in 0 W/m2
06:25 33.3 °F 30 °F 30 in WNW 6.9 mph 9 mph 88% 0 in 0 W/m2
06:30 33.1 °F 29.8 °F 30 in West 2.9 mph 6 mph 88% 0 in 0 W/m2
06:35 33.1 °F 29.8 °F 30 in WSW 4.9 mph 10 mph 88% 0 in 0 W/m2
06:40 33.1 °F 29.8 °F 30 in West 8.1 mph 10 mph 88% 0 in 0 W/m2
06:45 33.1 °F 29.8 °F 30 in WNW 8.1 mph 8 mph 88% 0 in 0 W/m2
06:50 33.1 °F 29.8 °F 30 in WNW 4 mph 7 mph 88% 0 in 0 W/m2
06:55 33.1 °F 29.8 °F 30 in WNW 2.9 mph 6 mph 88% 0 in 0 W/m2
07:00 32.9 °F 29.7 °F 30 in West 6 mph 7 mph 88% 0 in 0 W/m2
07:05 32.9 °F 30 °F 30 in WNW 4 mph 15 mph 89% 0 in 0 W/m2
07:10 32.9 °F 30 °F 30 in WNW 2.9 mph 8 mph 89% 0 in 0 W/m2
07:15 32.9 °F 30 °F 30 in West 2 mph 15 mph 89% 0 in 0 W/m2
07:20 32.9 °F 29.7 °F 30 in West 2.9 mph 9 mph 88% 0 in 0 W/m2
07:25 32.9 °F 29.7 °F 30 in NNW 2 mph 5 mph 88% 0 in 0 W/m2
07:30 32.7 °F 29.8 °F 30 in WSW 2 mph 10 mph 89% 0 in 0 W/m2
07:35 32.7 °F 29.8 °F 30 in West 4 mph 9 mph 89% 0 in 0 W/m2
07:40 32.7 °F 29.5 °F 30 in WSW 4 mph 10 mph 88% 0 in 0 W/m2
07:45 32.7 °F 29.5 °F 30 in West 6 mph 7 mph 88% 0 in 0 W/m2
07:50 32.7 °F 29.5 °F 30 in WNW 2.9 mph 8 mph 88% 0 in 0 W/m2
07:55 32.7 °F 29.5 °F 30 in West 2 mph 6 mph 88% 0 in 0 W/m2
08:00 32.7 °F 29.5 °F 30 in WSW 2 mph 3 mph 88% 0 in 0 W/m2
08:05 32.5 °F 29.7 °F 30 in West 4 mph 8 mph 89% 0 in 0 W/m2
08:10 32.5 °F 29.7 °F 30 in SW 4 mph 6 mph 89% 0 in 0 W/m2
08:15 32.5 °F 29.7 °F 30 in NNW 4.9 mph 7 mph 89% 0 in 0 W/m2
08:20 32.5 °F 29.7 °F 30 in West 6 mph 7 mph 89% 0 in 0 W/m2
08:25 32.5 °F 29.7 °F 30 in WSW 6 mph 9 mph 89% 0 in 0 W/m2
08:30 32.4 °F 29.1 °F 30 in WNW 8.9 mph 11 mph 88% 0 in 0 W/m2
08:35 32.4 °F 29.1 °F 30 in West 2.9 mph 9 mph 88% 0 in 5 W/m2
08:40 32.4 °F 29.1 °F 30 in WNW 4 mph 7 mph 88% 0 in 7 W/m2
08:45 32.4 °F 29.1 °F 30 in West 4 mph 6 mph 88% 0 in 11 W/m2
08:50 32.2 °F 29.3 °F 30 in WSW 4.9 mph 6 mph 89% 0 in 14 W/m2
08:55 32.2 °F 29.3 °F 30 in West 2.9 mph 3 mph 89% 0 in 21 W/m2
09:00 32.2 °F 29.3 °F 30 in NW 2 mph 4 mph 89% 0 in 21 W/m2
09:05 32.2 °F 29.3 °F 30 in West 2.9 mph 8 mph 89% 0 in 25 W/m2
09:10 32.2 °F 29.3 °F 30 in West 4 mph 7 mph 89% 0 in 28 W/m2
09:15 32.2 °F 29.3 °F 30 in WNW 2 mph 11 mph 89% 0 in 40 W/m2
09:21 32.2 °F 29.3 °F 30 in NW 0.9 mph 4 mph 89% 0 in 47 W/m2
09:26 32.2 °F 29.3 °F 30 in West 0.9 mph 11 mph 89% 0 in 44 W/m2
09:31 32.2 °F 29.3 °F 30 in SW 2 mph 4 mph 89% 0 in 35 W/m2
09:36 32.2 °F 29.3 °F 30 in WNW 0.9 mph 2 mph 89% 0 in 42 W/m2
09:41 32.2 °F 29.3 °F 30 in Calm   6 mph 89% 0 in 42 W/m2
09:46 32.2 °F 29.3 °F 30 in WNW 2.9 mph 4 mph 89% 0 in 56 W/m2
09:51 32.2 °F 29.3 °F 30 in WNW 0.9 mph 3 mph 89% 0 in 49 W/m2
09:56 32.2 °F 29.3 °F 30 in NW 2 mph 6 mph 89% 0 in 44 W/m2
10:01 32.2 °F 29.3 °F 30 in WNW 4 mph 9 mph 89% 0 in 81 W/m2
10:06 32.2 °F 29.3 °F 30 in NW 4 mph 7 mph 89% 0 in 56 W/m2
10:11 32.2 °F 29.3 °F 30 in West 2.9 mph 5 mph 89% 0 in 44 W/m2
10:16 32.2 °F 29.3 °F 30 in West 6 mph 7 mph 89% 0 in 51 W/m2
10:21 31.8 °F 28.8 °F 30 in West 2.9 mph 8 mph 88% 0 in 51 W/m2
10:26 31.8 °F 28.9 °F 30 in WNW 2.9 mph 9 mph 89% 0 in 62 W/m2
10:31 31.8 °F 28.9 °F 30 in WNW 2.9 mph 10 mph 89% 0 in 70 W/m2
10:36 31.8 °F 28.9 °F 30 in West 2 mph 7 mph 89% 0 in 81 W/m2
10:41 32 °F 29.1 °F 30 in West 2.9 mph 9 mph 89% 0 in 69 W/m2
10:46 32.2 °F 29.3 °F 30 in WNW 0.9 mph 3 mph 89% 0 in 98 W/m2
10:51 32.4 °F 29.5 °F 30 in West 2 mph 6 mph 89% 0 in 120 W/m2
10:56 32.4 °F 29.5 °F 30 in WNW 0.9 mph 4 mph 89% 0 in 111 W/m2
11:01 32.5 °F 29.7 °F 30 in WNW 4 mph 8 mph 89% 0 in 97 W/m2
11:06 32.5 °F 29.3 °F 30 in WNW 2.9 mph 6 mph 88% 0 in 111 W/m2
11:11 32.5 °F 29.3 °F 30 in WNW 6.9 mph 7 mph 88% 0 in 105 W/m2
11:16 32.5 °F 29.3 °F 30 in WNW 0.9 mph 8 mph 88% 0 in 113 W/m2
11:21 32.5 °F 29.3 °F 30 in WNW 6.9 mph 9 mph 88% 0 in 137 W/m2
11:26 32.5 °F 29.1 °F 30 in WNW 8.1 mph 11 mph 87% 0 in 142 W/m2
11:31 32.4 °F 28.9 °F 30 in WNW 2.9 mph 10 mph 87% 0 in 116 W/m2
11:36 32.5 °F 29.3 °F 30 in NNW 2.9 mph 11 mph 88% 0 in 125 W/m2
11:41 32.4 °F 28.9 °F 30 in WNW 6.9 mph 10 mph 87% 0 in 121 W/m2
11:46 32.5 °F 29.3 °F 30 in WNW 2.9 mph 10 mph 88% 0 in 123 W/m2
11:51 32.5 °F 29.3 °F 30 in SW 6.9 mph 8 mph 88% 0 in 162 W/m2
11:56 32.7 °F 29.5 °F 30 in WSW 2 mph 10 mph 88% 0 in 169 W/m2
12:01 32.9 °F 29.7 °F 30 in West 2.9 mph 6 mph 88% 0 in 158 W/m2
12:06 33.1 °F 29.7 °F 30 in West 6 mph 9 mph 87% 0 in 156 W/m2
12:11 33.1 °F 29.8 °F 30 in WNW 8.9 mph 9 mph 88% 0 in 153 W/m2
12:16 33.1 °F 29.7 °F 30 in WNW 8.1 mph 10 mph 87% 0 in 158 W/m2
12:21 33.3 °F 29.8 °F 30 in West 4 mph 11 mph 87% 0 in 137 W/m2
12:26 33.3 °F 29.8 °F 30 in WSW 8.1 mph 11 mph 87% 0 in 142 W/m2
12:31 33.3 °F 29.8 °F 30 in West 6 mph 8 mph 87% 0 in 174 W/m2
12:36 33.4 °F 30 °F 30 in WNW 11 mph 11 mph 87% 0 in 206 W/m2
12:41 33.4 °F 29.7 °F 30 in West 6.9 mph 12 mph 86% 0 in 178 W/m2
12:46 33.4 °F 29.7 °F 30 in WSW 6.9 mph 9 mph 86% 0 in 149 W/m2
12:51 33.4 °F 29.7 °F 30 in WNW 2.9 mph 15 mph 86% 0 in 132 W/m2
12:56 33.6 °F 29.8 °F 30 in WNW 2.9 mph 8 mph 86% 0 in 142 W/m2
13:01 33.6 °F 29.8 °F 30 in WSW 2.9 mph 14 mph 86% 0 in 137 W/m2
13:06 34 °F 30.2 °F 30 in West 4 mph 9 mph 86% 0 in 130 W/m2
13:11 34.2 °F 30.4 °F 30 in West 8.1 mph 12 mph 86% 0 in 120 W/m2
13:16 34.2 °F 30.2 °F 30 in WNW 4 mph 6 mph 85% 0 in 98 W/m2
13:21 34.2 °F 30.2 °F 30 in WNW 4.9 mph 10 mph 85% 0 in 91 W/m2
13:26 34.2 °F 30.2 °F 30 in WNW 4 mph 8 mph 85% 0 in 109 W/m2
13:31 34.3 °F 30.4 °F 30 in NW 4 mph 10 mph 85% 0 in 127 W/m2
13:36 34.5 °F 30.6 °F 30 in WNW 6.9 mph 9 mph 85% 0 in 134 W/m2
13:41 34.9 °F 30.9 °F 30 in West 2.9 mph 10 mph 85% 0 in 128 W/m2
13:46 35.1 °F 30.7 °F 30 in West 4 mph 7 mph 84% 0 in 134 W/m2
13:51 35.2 °F 30.9 °F 30 in WSW 6 mph 9 mph 84% 0 in 137 W/m2
13:56 35.4 °F 31.1 °F 30 in WSW 6.9 mph 9 mph 84% 0 in 130 W/m2
14:01 35.6 °F 30.9 °F 30 in WSW 2.9 mph 7 mph 83% 0 in 127 W/m2
14:06 35.6 °F 30.9 °F 30 in West 6 mph 9 mph 83% 0 in 123 W/m2
14:11 35.8 °F 31.1 °F 30 in WNW 4.9 mph 10 mph 83% 0 in 121 W/m2
14:16 35.8 °F 31.1 °F 30 in West 4 mph 9 mph 83% 0 in 127 W/m2
14:21 35.8 °F 31.1 °F 30 in West 8.9 mph 11 mph 83% 0 in 111 W/m2
14:26 35.8 °F 31.1 °F 30 in West 6.9 mph 10 mph 83% 0 in 91 W/m2
14:31 35.8 °F 31.1 °F 30 in West 2 mph 7 mph 83% 0 in 88 W/m2
14:36 35.8 °F 31.1 °F 30 in West 6 mph 9 mph 83% 0 in 77 W/m2
14:41 35.8 °F 31.1 °F 30 in NW 4 mph 7 mph 83% 0 in 76 W/m2
14:46 35.6 °F 30.7 °F 30 in WNW 2.9 mph 9 mph 82% 0 in 86 W/m2
14:51 35.4 °F 30.7 °F 30 in West 6 mph 7 mph 83% 0 in 91 W/m2
14:56 35.4 °F 30.7 °F 30 in West 6.9 mph 8 mph 83% 0 in 86 W/m2
15:01 35.4 °F 31.1 °F 30 in West 4 mph 8 mph 84% 0 in 65 W/m2
15:06 35.4 °F 30.7 °F 30 in WNW 8.1 mph 9 mph 83% 0 in 47 W/m2
15:11 35.2 °F 30.6 °F 30 in WSW 4 mph 10 mph 83% 0 in 40 W/m2
15:16 35.2 °F 30.9 °F 30 in WNW 2.9 mph 6 mph 84% 0 in 46 W/m2
15:21 35.2 °F 30.9 °F 30 in WSW 2.9 mph 10 mph 84% 0 in 47 W/m2
15:26 35.2 °F 30.9 °F 30 in WNW 2 mph 7 mph 84% 0 in 46 W/m2
15:31 35.2 °F 30.6 °F 30 in WNW 2 mph 7 mph 83% 0 in 39 W/m2
15:37 35.1 °F 30.7 °F 30 in Calm   4 mph 84% 0 in 35 W/m2
15:42 35.1 °F 30.7 °F 30 in Calm   3 mph 84% 0 in 28 W/m2
15:47 35.1 °F 30.7 °F 30 in Calm   4 mph 84% 0 in 26 W/m2
15:52 34.9 °F 30.6 °F 30 in WNW 0.9 mph 4 mph 84% 0 in 26 W/m2
15:57 34.9 °F 30.9 °F 30 in SE 2 mph 3 mph 85% 0 in 33 W/m2
16:02 34.7 °F 30.7 °F 30 in West 0.9 mph 2 mph 85% 0 in 40 W/m2
16:07 34.7 °F 30.7 °F 30 in Calm   1 mph 85% 0 in 40 W/m2
16:12 34.7 °F 30.7 °F 30 in NNW 2 mph 2 mph 85% 0 in 37 W/m2
16:17 34.5 °F 30.6 °F 30 in NW 0.9 mph 6 mph 85% 0 in 19 W/m2
16:22 34.5 °F 30.7 °F 30 in WSW 4 mph 5 mph 86% 0 in 16 W/m2
16:27 34.5 °F 30.6 °F 30 in West 4 mph 7 mph 85% 0 in 11 W/m2
16:32 34.5 °F 30.6 °F 30 in WNW 0.9 mph 3 mph 85% 0 in 9 W/m2
16:37 34.5 °F 30.6 °F 30 in WSW 4 mph 7 mph 85% 0 in 7 W/m2
16:42 34.3 °F 30.4 °F 30 in West 2 mph 3 mph 85% 0 in 5 W/m2
16:47 34.3 °F 30.4 °F 30 in West 4 mph 6 mph 85% 0 in 5 W/m2
16:52 34.3 °F 30.4 °F 30 in WSW 0.9 mph 6 mph 85% 0 in 5 W/m2
16:57 34.3 °F 30.6 °F 30 in West 4 mph 8 mph 86% 0 in 0 W/m2
17:02 34.3 °F 30.6 °F 30 in WNW 2.9 mph 3 mph 86% 0 in 0 W/m2
17:07 34.3 °F 30.6 °F 30 in WSW 2.9 mph 8 mph 86% 0 in 0 W/m2
17:12 34.3 °F 30.6 °F 30 in West 2 mph 7 mph 86% 0 in 0 W/m2
17:17 34.3 °F 30.6 °F 30 in West 2.9 mph 4 mph 86% 0 in 0 W/m2
17:22 34.2 °F 30.4 °F 30 in WSW 4 mph 7 mph 86% 0 in 0 W/m2
17:27 34.2 °F 30.4 °F 30 in West 6 mph 6 mph 86% 0 in 0 W/m2
17:32 34.2 °F 30.7 °F 30 in West 0.9 mph 4 mph 87% 0 in 0 W/m2
17:37 34 °F 30.6 °F 30 in WNW 2 mph 5 mph 87% 0 in 0 W/m2
17:42 34 °F 30.6 °F 30 in West 2.9 mph 3 mph 87% 0 in 0 W/m2
17:47 34 °F 30.6 °F 30 in Calm   2 mph 87% 0 in 0 W/m2
17:52 34 °F 30.6 °F 30 in WNW 0.9 mph 6 mph 87% 0 in 0 W/m2
17:57 33.8 °F 30.4 °F 30.1 in WNW 2.9 mph 3 mph 87% 0 in 0 W/m2
18:02 33.6 °F 30.2 °F 30.1 in WNW 2.9 mph 4 mph 87% 0 in 0 W/m2
18:07 33.6 °F 30.2 °F 30.1 in Calm   2 mph 87% 0 in 0 W/m2
18:12 33.6 °F 30.4 °F 30.1 in WNW 2 mph 3 mph 88% 0 in 0 W/m2
18:17 33.6 °F 30.4 °F 30.1 in West 0.9 mph 3 mph 88% 0 in 0 W/m2
18:29 33.6 °F 30.4 °F 30.1 in WNW 2 mph 8 mph 88% 0 in 0 W/m2
18:34 33.6 °F 30.4 °F 30.1 in Calm   1 mph 88% 0 in 0 W/m2
18:39 33.4 °F 30.2 °F 30.1 in WSW 0.9 mph 3 mph 88% 0 in 0 W/m2
18:44 33.6 °F 30.4 °F 30.1 in WSW 2.9 mph 3 mph 88% 0 in 0 W/m2
18:49 33.4 °F 30.2 °F 30.1 in NW 0.9 mph 2 mph 88% 0 in 0 W/m2
18:54 33.4 °F 30.2 °F 30.1 in Calm   1 mph 88% 0 in 0 W/m2
18:59 33.4 °F 30.2 °F 30.1 in Calm     88% 0 in 0 W/m2
19:04 33.4 °F 30.2 °F 30.1 in WNW 0.9 mph 3 mph 88% 0 in 0 W/m2
19:09 33.4 °F 30.2 °F 30.1 in Calm   4 mph 88% 0 in 0 W/m2
19:14 33.4 °F 30.2 °F 30.1 in WSW 4 mph 6 mph 88% 0 in 0 W/m2
19:19 33.4 °F 30.2 °F 30.1 in WSW 2.9 mph 4 mph 88% 0 in 0 W/m2
19:24 33.4 °F 30.2 °F 30.1 in NW 6.9 mph 7 mph 88% 0 in 0 W/m2
19:29 33.6 °F 30.4 °F 30.1 in WNW 0.9 mph 5 mph 88% 0 in 0 W/m2
19:34 33.6 °F 30.4 °F 30.1 in West 2 mph 3 mph 88% 0 in 0 W/m2
19:39 33.6 °F 30.4 °F 30.1 in NW 2 mph 6 mph 88% 0 in 0 W/m2
19:44 33.6 °F 30.4 °F 30.1 in WNW 2 mph 6 mph 88% 0 in 0 W/m2
19:49 33.6 °F 30.4 °F 30.1 in WNW 2.9 mph 5 mph 88% 0 in 0 W/m2
19:54 33.4 °F 30.2 °F 30.1 in West 6.9 mph 7 mph 88% 0 in 0 W/m2
19:59 33.4 °F 30.6 °F 30.1 in West 6 mph 8 mph 89% 0 in 0 W/m2
20:04 33.4 °F 30.6 °F 30.1 in West 6 mph 11 mph 89% 0 in 0 W/m2
20:09 33.4 °F 30.6 °F 30.1 in WNW 4.9 mph 7 mph 89% 0 in 0 W/m2
20:14 33.4 °F 30.6 °F 30.1 in WNW 2.9 mph 11 mph 89% 0 in 0 W/m2
20:19 33.6 °F 30.7 °F 30.1 in WNW 2.9 mph 7 mph 89% 0 in 0 W/m2
20:24 33.6 °F 30.7 °F 30.1 in West 0.9 mph 7 mph 89% 0 in 0 W/m2
20:29 33.6 °F 30.7 °F 30.1 in West 2.9 mph 5 mph 89% 0 in 0 W/m2
20:34 33.6 °F 30.7 °F 30.1 in NW 2.9 mph 4 mph 89% 0 in 0 W/m2
20:39 33.6 °F 30.7 °F 30.1 in West 2.9 mph 4 mph 89% 0 in 0 W/m2
20:44 33.6 °F 30.7 °F 30.1 in WNW 2 mph 4 mph 89% 0 in 0 W/m2
20:49 33.6 °F 30.7 °F 30.1 in WSW 0.9 mph 7 mph 89% 0 in 0 W/m2
20:54 33.8 °F 30.9 °F 30.1 in WNW 2 mph 3 mph 89% 0 in 0 W/m2
20:59 33.6 °F 30.7 °F 30.1 in NW 2 mph 3 mph 89% 0 in 0 W/m2
21:04 33.8 °F 30.9 °F 30.1 in WNW 0.9 mph 4 mph 89% 0 in 0 W/m2
21:09 33.8 °F 31.1 °F 30.1 in NNW 2.9 mph 3 mph 90% 0 in 0 W/m2
21:14 33.8 °F 31.1 °F 30.1 in NW 2 mph 3 mph 90% 0 in 0 W/m2
21:19 33.8 °F 30.9 °F 30.1 in NW 0.9 mph 4 mph 89% 0 in 0 W/m2
21:24 33.8 °F 30.9 °F 30.1 in WSW 2.9 mph 3 mph 89% 0 in 0 W/m2
21:29 33.8 °F 31.1 °F 30.1 in WNW 2 mph 8 mph 90% 0 in 0 W/m2
21:34 33.8 °F 31.1 °F 30.1 in WNW 2 mph 6 mph 90% 0 in 0 W/m2
21:39 33.6 °F 30.9 °F 30.1 in WNW 2 mph 4 mph 90% 0 in 0 W/m2
21:44 33.6 °F 30.9 °F 30.1 in NW 0.9 mph 6 mph 90% 0 in 0 W/m2
21:49 33.8 °F 31.1 °F 30.1 in WNW 0.9 mph 3 mph 90% 0 in 0 W/m2
21:54 33.8 °F 31.1 °F 30.1 in WSW 2.9 mph 6 mph 90% 0 in 0 W/m2
21:59 33.8 °F 31.1 °F 30.1 in WNW 0.9 mph 3 mph 90% 0 in 0 W/m2
22:04 33.8 °F 31.1 °F 30.1 in NW 0.9 mph 4 mph 90% 0 in 0 W/m2
22:09 33.8 °F 31.1 °F 30.1 in WNW 0.9 mph 3 mph 90% 0 in 0 W/m2
22:14 33.8 °F 31.1 °F 30.1 in West 2 mph 2 mph 90% 0 in 0 W/m2
22:19 33.8 °F 31.5 °F 30.1 in West 0.9 mph 6 mph 91% 0 in 0 W/m2
22:24 34 °F 31.6 °F 30.1 in West 2 mph 4 mph 91% 0 in 0 W/m2
22:29 34 °F 31.6 °F 30.1 in West 2.9 mph 6 mph 91% 0 in 0 W/m2
22:35 34 °F 31.6 °F 30.1 in West 2 mph 2 mph 91% 0 in 0 W/m2
22:40 34 °F 31.6 °F 30.1 in WNW 2 mph 3 mph 91% 0 in 0 W/m2
22:45 34 °F 31.6 °F 30.1 in WNW 0.9 mph 3 mph 91% 0 in 0 W/m2
22:50 34.2 °F 31.8 °F 30.1 in WNW 2 mph 3 mph 91% 0 in 0 W/m2
22:55 34.2 °F 31.8 °F 30.1 in WNW 0.9 mph 3 mph 91% 0 in 0 W/m2
23:00 34.2 °F 31.8 °F 30.1 in WNW 2 mph 3 mph 91% 0 in 0 W/m2
23:05 34.2 °F 31.8 °F 30.1 in West 2 mph 2 mph 91% 0 in 0 W/m2
23:10 34.2 °F 31.8 °F 30.1 in West 2 mph 3 mph 91% 0 in 0 W/m2
23:15 34.2 °F 31.8 °F 30.1 in West 2 mph 3 mph 91% 0 in 0 W/m2
23:20 34.2 °F 31.8 °F 30.1 in West 2 mph 3 mph 91% 0 in 0 W/m2
23:25 34.2 °F 31.8 °F 30.1 in WNW 0.9 mph 2 mph 91% 0 in 0 W/m2
23:30 34.2 °F 31.8 °F 30.1 in West 2 mph 2 mph 91% 0 in 0 W/m2
23:35 34.3 °F 32 °F 30.1 in West 0.9 mph 2 mph 91% 0 in 0 W/m2
23:40 34.3 °F 32 °F 30.1 in West 2 mph 2 mph 91% 0 in 0 W/m2
23:45 34.3 °F 32 °F 30.1 in West 0.9 mph 1 mph 91% 0 in 0 W/m2
23:50 34.3 °F 32 °F 30.1 in Calm     91% 0 in 0 W/m2
23:55 34.3 °F 32 °F 30.1 in Calm   1 mph 91% 0 in 0 W/m2
Juneau County Weather
Compliments of Weather Underground - 4 mb